This is the latest recevied weather packets stored in our database for station/object WZ8H. If no packets are shown the sender has not sent any weather packets the latest 1 day(s).
| Time | Temp. | Humidity | Pressure | Rain* | Wind** | Luminosity | Snow |
|---|---|---|---|---|---|---|---|
| 1778024982 | 10° C | 94% | 1007.3 hPa | 0.76 mm | 0 m/s | 11 W/m² | - |
| 1778024656 | 10° C | 94% | 1007.4 hPa | 0.51 mm | 0 m/s | 9 W/m² | - |
| 1778024369 | 10° C | 94% | 1007.4 hPa | 0.51 mm | 0 m/s | 12 W/m² | - |
| 1778024058 | 10° C | 94% | 1007.2 hPa | 0.76 mm | 0 m/s | 12 W/m² | - |
| 1778023758 | 10° C | 94% | 1007.2 hPa | 1.02 mm | 0.45 m/s, 290° | 14 W/m² | - |
| 1778023431 | 10° C | 94% | 1007.2 hPa | 1.02 mm | 0 m/s | 21 W/m² | - |
| 1778023106 | 10° C | 94% | 1007.3 hPa | 1.27 mm | 0 m/s | 14 W/m² | - |
| 1778022808 | 10° C | 94% | 1007.4 hPa | 1.52 mm | 0 m/s | 11 W/m² | - |
| 1778022481 | 10° C | 94% | 1007.3 hPa | 1.78 mm | 0 m/s | 14 W/m² | - |
| 1778022157 | 10° C | 94% | 1007.3 hPa | 2.03 mm | 0 m/s | 35 W/m² | - |
| 1778021831 | 10° C | 94% | 1007.3 hPa | 2.29 mm | 0 m/s | 56 W/m² | - |
| 1778021520 | 10° C | 94% | 1007.6 hPa | 2.79 mm | 0 m/s | 25 W/m² | - |
| 1778021215 | 10° C | 94% | 1007.5 hPa | 3.05 mm | 0 m/s | 51 W/m² | - |
| 1778020917 | 10° C | 94% | 1007.6 hPa | 3.3 mm | 0.45 m/s, 329° | 69 W/m² | - |
| 1778020591 | 10° C | 94% | 1007.6 hPa | 3.3 mm | 0.45 m/s, 329° | 65 W/m² | - |
| 1778020286 | 10° C | 94% | 1008 hPa | 3.3 mm | 0.45 m/s, 309° | 19 W/m² | - |
| 1778019960 | 10° C | 94% | 1007.7 hPa | 3.3 mm | 0.45 m/s, 347° | 26 W/m² | - |
| 1778019634 | 10.56° C | 94% | 1007.4 hPa | 3.05 mm | 0.45 m/s, 296° | 46 W/m² | - |
| 1778019328 | 10.56° C | 94% | 1007.4 hPa | 2.79 mm | 0.45 m/s, 288° | 37 W/m² | - |
| 1778019023 | 10.56° C | 94% | 1007.5 hPa | 2.79 mm | 0.45 m/s, 286° | 44 W/m² | - |
| 1778018717 | 10.56° C | 94% | 1007.4 hPa | 2.54 mm | 0.45 m/s, 279° | 33 W/m² | - |
| 1778018410 | 10.56° C | 94% | 1007.3 hPa | 2.54 mm | 0.89 m/s, 294° | 49 W/m² | - |
| 1778018110 | 10.56° C | 94% | 1007.3 hPa | 2.03 mm | 0.45 m/s, 304° | 46 W/m² | - |
| 1778017781 | 10.56° C | 94% | 1007.3 hPa | 1.78 mm | 0.45 m/s, 333° | 37 W/m² | - |
| 1778017456 | 10.56° C | 93% | 1007.2 hPa | 1.78 mm | 0.45 m/s, 344° | 54 W/m² | - |
* Rain latest hour (hover to see other rain measurements)
** Current wind speed in m/s (hover to see current wind gust speed)